Řízení letového provozu České republiky
OPMET data - Ceska Republika Aktualizace: 18.08.2018 11:31:07  UTC
SIGMET / AIRMET - NIL
Warning / Vystraha - NIL
 
METAR / SPECI
METAR LKCV 181100Z 28005KT 220V320 CAVOK 28/13 Q1019 NOSIG RMK BLU BLU=
METAR LKKB 181100Z 35008KT 320V040 CAVOK 24/14 Q1020 NOSIG RMK BLU BLU=
METAR LKKU NIL
METAR LKKV 181130Z 07006KT 040V120 9999 FEW049 26/14 Q1022 RMK REG QNH 1017=
METAR LKLN 181100Z AUTO 06004KT 330V120 CAVOK 29/13 Q1020=
METAR LKMT 181130Z 03005KT 330V110 CAVOK 28/13 Q1020 NOSIG RMK REG QNH 1017=
METAR LKNA 181100Z VRB03KT CAVOK 28/09 Q1020 NOSIG RMK BLU BLU=
METAR LKPD 181100Z 34005KT 270V090 CAVOK 29/11 Q1019 NOSIG RMK BLU BLU=
METAR LKPR 181130Z 02009KT CAVOK 25/13 Q1021 NOSIG RMK REG QNH 1017=
METAR LKTB 181130Z 14006KT 080V190 CAVOK 31/10 Q1019 NOSIG RMK REG QNH 1017=
METAR LKVO 181100Z 35008KT 290V100 CAVOK 24/13 Q1021=
TAF
TAF LKCV 180500Z 1806/1906 VRB02KT CAVOK      TEMPO 1811/1822 03008KT=
TAF COR LKKB 180500Z 1806/1906 35005KT CAVOK      TEMPO 1810/1814 02008KT=
TAF LKKU NIL
TAF LKKV 181100Z 1812/1918 VRB02KT CAVOK      PROB40 TEMPO 1812/1818 34015KT 5000 TSRA BKN040CB      PROB30 TEMPO 1910/1918 6000 SHRA BKN040CB=
TAF LKLN NIL
TAF LKMT 181100Z 1812/1918 05006KT CAVOK      PROB30 TEMPO 1812/1818 SHRA SCT050CB      BECMG 1821/1823 VRB02KT      BECMG 1907/1909 05008KT      TEMPO 1910/1918 03014G25KT 7000 SHRA SCT050CB      PROB30 TEMPO 1912/1918 7000 TSRA BKN040CB=
TAF LKNA 180500Z 1806/1906 33008KT CAVOK      BECMG 1813/1815 12008KT      BECMG 1817/1819 VRB02KT=
TAF LKPD 180500Z 1806/1906 34004KT CAVOK      TEMPO 1810/1817 03006KT SCT040TCU=
TAF LKPR 181100Z 1812/1918 01008KT CAVOK      PROB30 TEMPO 1812/1818 03012G24KT 7000 SHRA SCT050CB      PROB30 TEMPO 1910/1912 SCT050CB=
TAF LKTB 181100Z 1812/1918 08006KT CAVOK      PROB30 TEMPO 1812/1817 SCT060CB      BECMG 1822/1900 VRB02KT      BECMG 1906/1909 08008KT      PROB30 TEMPO 1910/1918 7000 SHRA SCT050CB=
TAF LKVO NIL